createdAt,value
2022-12-01T00:00:55.515Z,26.00
2022-12-01T00:03:58.251Z,22.33
2022-12-01T00:07:01.123Z,36.00
2022-12-01T00:10:22.805Z,22.67
2022-12-01T00:13:25.163Z,25.67
2022-12-01T00:16:27.938Z,25.67
2022-12-01T00:19:30.373Z,30.33
2022-12-01T00:22:33.894Z,25.00
2022-12-01T00:25:36.310Z,28.67
2022-12-01T00:28:39.400Z,27.33
2022-12-01T00:31:41.943Z,25.00
2022-12-01T00:34:44.649Z,20.33
2022-12-01T00:37:47.009Z,23.00
2022-12-01T00:40:49.657Z,37.00
2022-12-01T00:43:52.514Z,28.00
2022-12-01T00:46:55.629Z,34.33
2022-12-01T00:49:57.960Z,30.00
2022-12-01T00:53:01.187Z,25.00
2022-12-01T00:56:03.752Z,34.33
2022-12-01T00:59:06.553Z,24.33
2022-12-01T01:02:08.959Z,21.67
2022-12-01T01:05:11.734Z,34.33
2022-12-01T01:08:17.721Z,23.33
2022-12-01T01:11:20.490Z,26.33
2022-12-01T01:14:22.964Z,31.67
2022-12-01T01:17:25.676Z,25.00
2022-12-01T01:20:28.522Z,36.00
2022-12-01T01:23:31.321Z,25.33
2022-12-01T01:26:34.062Z,26.67
2022-12-01T01:29:37.068Z,27.00
2022-12-01T01:32:39.359Z,27.33
2022-12-01T01:35:42.038Z,25.00
2022-12-01T01:38:44.751Z,29.33
2022-12-01T01:41:47.553Z,31.00
2022-12-01T01:44:55.852Z,28.33
2022-12-01T01:48:00.095Z,32.00
2022-12-01T01:51:02.981Z,36.67
2022-12-01T01:54:16.198Z,40.00
2022-12-01T01:57:25.637Z,38.00
2022-12-01T02:00:28.450Z,32.33
2022-12-01T02:03:36.153Z,26.00
2022-12-01T02:06:38.819Z,31.00
2022-12-01T02:09:41.354Z,30.67
2022-12-01T02:12:50.249Z,25.67
2022-12-01T02:16:11.162Z,40.67
2022-12-01T02:19:32.594Z,22.67
2022-12-01T02:22:59.591Z,41.00
2022-12-01T02:26:07.752Z,32.33
2022-12-01T02:29:31.773Z,31.33
2022-12-01T02:32:56.753Z,41.00
2022-12-01T02:36:05.497Z,36.00
2022-12-01T02:39:08.074Z,27.67
2022-12-01T02:42:53.783Z,42.33
2022-12-01T02:46:25.759Z,39.33
2022-12-01T02:49:33.003Z,39.00
2022-12-01T02:52:36.102Z,37.00
2022-12-01T02:55:47.479Z,31.33
2022-12-01T02:58:51.069Z,48.00
2022-12-01T03:02:16.681Z,45.33
2022-12-01T03:05:36.960Z,38.33
2022-12-01T03:09:14.500Z,33.33
2022-12-01T03:12:29.072Z,41.33
2022-12-01T03:15:47.213Z,36.67
2022-12-01T03:19:12.682Z,42.33
2022-12-01T03:22:19.439Z,33.67
2022-12-01T03:25:24.839Z,44.33
2022-12-01T03:28:32.842Z,33.67
2022-12-01T03:31:43.988Z,25.00
2022-12-01T03:34:49.944Z,32.33
2022-12-01T03:38:18.938Z,31.67
2022-12-01T03:41:25.800Z,43.00
2022-12-01T03:44:39.023Z,37.00
2022-12-01T03:47:41.579Z,32.33
2022-12-01T03:51:18.421Z,47.67
2022-12-01T03:54:52.421Z,42.00
2022-12-01T03:58:20.339Z,43.33
2022-12-01T04:01:23.048Z,40.67
2022-12-01T04:04:25.850Z,42.67
2022-12-01T04:07:28.323Z,42.67
2022-12-01T04:10:31.136Z,37.00
2022-12-01T04:13:33.749Z,30.00
2022-12-01T04:16:36.662Z,41.33
2022-12-01T04:19:39.343Z,38.33
2022-12-01T04:22:42.223Z,36.67
2022-12-01T04:25:44.661Z,34.33
2022-12-01T04:28:47.419Z,48.00
2022-12-01T04:31:49.958Z,34.00
2022-12-01T04:34:53.178Z,39.33
2022-12-01T04:37:55.658Z,41.00
2022-12-01T04:40:58.533Z,28.67
2022-12-01T04:44:00.916Z,42.00
2022-12-01T04:47:07.235Z,40.33
2022-12-01T04:50:10.276Z,39.33
2022-12-01T04:53:12.939Z,41.33
2022-12-01T04:56:15.259Z,40.67
2022-12-01T04:59:18.297Z,43.67
2022-12-01T05:02:20.717Z,33.33
2022-12-01T05:05:23.513Z,37.00
2022-12-01T05:08:25.958Z,43.33
2022-12-01T05:11:30.199Z,41.33
2022-12-01T05:14:32.644Z,37.67
2022-12-01T05:17:37.098Z,39.33
2022-12-01T05:20:57.946Z,38.00
2022-12-01T05:24:00.741Z,37.00
2022-12-01T05:27:03.381Z,33.00
2022-12-01T05:30:07.082Z,38.00
2022-12-01T05:33:09.482Z,43.00
2022-12-01T05:36:12.441Z,41.33
2022-12-01T05:39:15.031Z,37.67
2022-12-01T05:42:17.925Z,42.00
2022-12-01T05:45:20.357Z,39.33
2022-12-01T05:48:23.224Z,47.67
2022-12-01T05:51:25.578Z,37.00
2022-12-01T05:54:30.324Z,34.00
2022-12-01T05:57:33.783Z,51.67
2022-12-01T06:00:42.295Z,38.00
2022-12-01T06:03:48.058Z,37.33
2022-12-01T06:06:51.261Z,45.67
2022-12-01T06:09:53.782Z,38.33
2022-12-01T06:12:56.561Z,41.00
2022-12-01T06:16:06.862Z,40.00
2022-12-01T06:19:09.713Z,34.67
2022-12-01T06:22:12.319Z,42.67
2022-12-01T06:25:15.178Z,39.33
2022-12-01T06:28:17.639Z,45.00
2022-12-01T06:31:24.396Z,27.67
2022-12-01T06:34:26.919Z,40.00
2022-12-01T06:37:29.764Z,32.33
2022-12-01T06:40:32.360Z,28.67
2022-12-01T06:43:38.446Z,32.33
2022-12-01T06:46:41.019Z,33.00
2022-12-01T06:49:44.280Z,42.33
2022-12-01T06:52:47.000Z,37.67
2022-12-01T06:55:49.775Z,31.67
2022-12-01T06:58:53.423Z,34.00
2022-12-01T07:01:58.081Z,45.00
2022-12-01T07:05:00.571Z,36.67
2022-12-01T07:08:03.780Z,42.67
2022-12-01T07:11:08.677Z,37.33
2022-12-01T07:14:23.898Z,44.67
2022-12-01T07:17:26.441Z,49.00
2022-12-01T07:20:29.165Z,33.00
2022-12-01T07:23:31.618Z,39.00
2022-12-01T07:26:34.537Z,41.33
2022-12-01T07:29:36.954Z,24.00
2022-12-01T07:32:40.530Z,33.33
2022-12-01T07:35:42.792Z,39.67
2022-12-01T07:38:45.408Z,41.33
2022-12-01T07:41:47.701Z,41.00
2022-12-01T07:44:50.524Z,38.33
2022-12-01T07:47:54.520Z,38.00
2022-12-01T07:50:57.227Z,43.67
2022-12-01T07:54:05.740Z,40.67
2022-12-01T07:57:08.407Z,38.33
2022-12-01T08:00:11.417Z,39.67
2022-12-01T08:03:17.280Z,33.33
2022-12-01T08:06:20.631Z,37.00
2022-12-01T08:09:24.065Z,33.67
2022-12-01T08:12:26.644Z,47.67
2022-12-01T08:15:29.557Z,34.33
2022-12-01T08:18:34.929Z,45.00
2022-12-01T08:21:37.951Z,41.33
2022-12-01T08:24:40.288Z,42.33
2022-12-01T08:27:42.981Z,29.67
2022-12-01T08:30:45.781Z,43.00
2022-12-01T08:33:49.129Z,33.33
2022-12-01T08:36:51.451Z,33.67
2022-12-01T08:39:54.063Z,22.67
2022-12-01T08:42:56.533Z,40.67
2022-12-01T08:46:02.539Z,51.00
2022-12-01T08:49:06.209Z,47.00
2022-12-01T08:52:08.873Z,41.33
2022-12-01T08:55:11.252Z,41.67
2022-12-01T08:58:13.921Z,40.00
2022-12-01T09:01:17.756Z,37.00
2022-12-01T09:04:22.718Z,37.67
2022-12-01T09:07:26.887Z,41.00
2022-12-01T09:10:29.828Z,36.00
2022-12-01T09:13:33.940Z,43.33
2022-12-01T09:16:36.786Z,37.00
2022-12-01T09:19:39.196Z,48.33
2022-12-01T09:22:41.850Z,37.33
2022-12-01T09:25:44.250Z,42.00
2022-12-01T09:28:48.195Z,31.00
2022-12-01T09:31:50.582Z,37.00
2022-12-01T09:34:53.296Z,36.67
2022-12-01T09:37:55.661Z,40.33
2022-12-01T09:41:00.676Z,39.67
2022-12-01T09:44:10.918Z,31.33
2022-12-01T09:47:34.669Z,38.33
2022-12-01T09:50:37.686Z,36.67
2022-12-01T09:53:41.597Z,38.33
2022-12-01T09:56:50.583Z,43.67
2022-12-01T09:59:53.910Z,39.00
2022-12-01T10:03:02.308Z,33.00
2022-12-01T10:06:32.296Z,34.33
2022-12-01T10:09:40.578Z,41.00
2022-12-01T10:12:44.570Z,40.00
2022-12-01T10:15:54.272Z,35.00
2022-12-01T10:19:08.967Z,40.67
2022-12-01T10:22:17.320Z,44.33
2022-12-01T10:25:25.415Z,37.33
2022-12-01T10:28:58.720Z,43.67
2022-12-01T10:32:13.207Z,40.00
2022-12-01T10:35:24.050Z,39.33
2022-12-01T10:38:35.243Z,46.67
2022-12-01T10:41:38.348Z,28.67
2022-12-01T10:44:41.690Z,43.00
2022-12-01T10:48:19.294Z,45.00
2022-12-01T10:51:22.979Z,42.67
2022-12-01T10:54:35.886Z,44.00
2022-12-01T10:57:38.864Z,39.33
2022-12-01T11:00:59.268Z,38.00
2022-12-01T11:04:21.258Z,40.67
2022-12-01T11:07:28.001Z,41.33
2022-12-01T11:10:32.603Z,46.67
2022-12-01T11:13:36.891Z,45.33
2022-12-01T11:16:47.443Z,52.00
2022-12-01T11:19:50.273Z,57.00
2022-12-01T11:22:53.673Z,46.33
2022-12-01T11:26:06.600Z,38.33
2022-12-01T11:29:38.338Z,41.67
2022-12-01T11:32:40.797Z,38.00
2022-12-01T11:35:48.358Z,46.67
2022-12-01T11:38:56.146Z,47.33
2022-12-01T11:42:01.676Z,47.67
2022-12-01T11:45:25.842Z,47.00
2022-12-01T11:48:34.841Z,43.33
2022-12-01T11:51:39.850Z,41.00
2022-12-01T11:54:57.158Z,40.67
2022-12-01T11:58:04.358Z,44.67
2022-12-01T12:01:23.941Z,40.33
2022-12-01T12:04:35.254Z,33.00
2022-12-01T12:07:42.677Z,46.67
2022-12-01T12:11:03.386Z,42.33
2022-12-01T12:14:12.597Z,48.67
2022-12-01T12:17:18.328Z,48.67
2022-12-01T12:20:30.436Z,49.67
2022-12-01T12:23:57.234Z,36.00
2022-12-01T12:27:37.307Z,33.00
2022-12-01T12:31:15.052Z,49.00
2022-12-01T12:34:52.016Z,50.00
2022-12-01T12:38:05.021Z,44.00
2022-12-01T12:41:32.482Z,39.67
2022-12-01T12:44:44.017Z,44.33
2022-12-01T12:48:24.561Z,44.67
2022-12-01T12:51:47.104Z,49.00
2022-12-01T12:54:53.851Z,48.67
2022-12-01T12:58:02.053Z,50.00
2022-12-01T13:01:19.569Z,45.33
2022-12-01T13:04:28.163Z,54.67
2022-12-01T13:07:30.878Z,47.00
2022-12-01T13:11:13.300Z,47.33
2022-12-01T13:14:28.745Z,50.00
2022-12-01T13:17:37.946Z,45.00
2022-12-01T13:20:41.108Z,44.00
2022-12-01T13:23:44.782Z,57.67
2022-12-01T13:26:52.877Z,52.67
2022-12-01T13:29:56.413Z,46.00
2022-12-01T13:33:02.309Z,40.67
2022-12-01T13:39:37.761Z,52.00
2022-12-01T13:42:40.947Z,51.67
2022-12-01T13:45:43.769Z,50.67
2022-12-01T13:48:46.212Z,51.00
2022-12-01T13:52:37.083Z,55.00
2022-12-01T13:56:17.889Z,44.00
2022-12-01T14:00:00.239Z,48.00
2022-12-01T14:03:21.043Z,51.67
2022-12-01T14:06:46.900Z,40.67
2022-12-01T14:09:54.036Z,48.33
2022-12-01T14:12:59.983Z,50.33
2022-12-01T14:16:04.231Z,44.00
2022-12-01T14:19:07.037Z,40.00
2022-12-01T14:22:37.292Z,49.33
2022-12-01T14:25:40.242Z,37.00
2022-12-01T14:29:00.936Z,38.33
2022-12-01T14:32:06.557Z,38.67
2022-12-01T14:35:13.460Z,35.00
2022-12-01T14:38:16.463Z,40.33
2022-12-01T14:41:30.709Z,36.33
2022-12-01T14:44:36.170Z,44.33
2022-12-01T14:47:50.138Z,29.67
2022-12-01T14:51:08.315Z,36.33
2022-12-01T14:54:18.206Z,42.33
2022-12-01T14:57:25.287Z,32.00
2022-12-01T15:00:27.906Z,37.67
2022-12-01T15:03:44.306Z,29.00
2022-12-01T15:06:46.823Z,19.67
2022-12-01T15:10:01.084Z,37.67
2022-12-01T15:13:30.967Z,30.00
2022-12-01T15:16:41.199Z,34.33
2022-12-01T15:19:44.340Z,34.67
2022-12-01T15:22:48.266Z,30.33
2022-12-01T15:25:50.758Z,37.00
2022-12-01T15:29:07.229Z,31.33
2022-12-01T15:32:15.447Z,33.33
2022-12-01T15:35:23.587Z,32.00
2022-12-01T15:38:29.724Z,28.00
2022-12-01T15:41:34.872Z,31.67
2022-12-01T15:44:37.368Z,30.33
2022-12-01T15:47:46.165Z,33.00
2022-12-01T15:51:17.465Z,30.00
2022-12-01T15:54:25.792Z,29.33
2022-12-01T15:57:28.349Z,28.00
2022-12-01T16:00:31.158Z,33.00
2022-12-01T16:03:57.860Z,33.67
2022-12-01T16:07:09.368Z,27.33
2022-12-01T16:10:33.125Z,32.33
2022-12-01T16:13:39.588Z,30.67
2022-12-01T16:16:47.339Z,27.33
2022-12-01T16:20:19.956Z,33.67
2022-12-01T16:23:25.885Z,31.67
2022-12-01T16:26:29.606Z,32.33
2022-12-01T16:29:36.029Z,37.67
2022-12-01T16:32:41.303Z,27.33
2022-12-01T16:35:44.140Z,36.67
2022-12-01T16:38:46.929Z,34.67
2022-12-01T16:41:49.860Z,45.67
2022-12-01T16:44:53.549Z,36.00
2022-12-01T16:47:56.582Z,37.00
2022-12-01T16:51:03.689Z,40.33
2022-12-01T16:54:07.041Z,37.00
2022-12-01T16:57:10.259Z,35.67
2022-12-01T17:00:13.623Z,29.33
2022-12-01T17:03:20.292Z,29.67
2022-12-01T17:06:23.720Z,25.00
2022-12-01T17:09:26.581Z,23.33
2022-12-01T17:12:29.329Z,29.00
2022-12-01T17:15:33.004Z,36.33
2022-12-01T17:18:37.446Z,26.33
2022-12-01T17:21:41.248Z,30.00
2022-12-01T17:24:44.520Z,33.67
2022-12-01T17:27:47.361Z,27.67
2022-12-01T17:30:50.440Z,39.33
2022-12-01T17:33:55.876Z,30.67
2022-12-01T17:36:58.585Z,33.00
2022-12-01T17:40:01.775Z,30.33
2022-12-01T17:43:04.569Z,32.33
2022-12-01T17:46:09.919Z,34.00
2022-12-01T17:49:13.943Z,37.00
2022-12-01T17:52:17.312Z,42.50
2022-12-01T17:55:21.228Z,55.50
2022-12-01T17:58:24.610Z,48.75
2022-12-01T18:01:30.389Z,42.50
2022-12-01T18:04:34.549Z,44.50
2022-12-01T18:07:37.150Z,63.25
2022-12-01T18:10:40.570Z,55.75
2022-12-01T18:13:45.972Z,53.25
2022-12-01T18:16:49.559Z,56.50
2022-12-01T18:19:52.421Z,52.75
2022-12-01T18:22:56.764Z,52.25
2022-12-01T18:26:12.163Z,61.25
2022-12-01T18:29:26.433Z,47.25
2022-12-01T18:32:30.833Z,52.50
2022-12-01T18:35:33.877Z,51.75
2022-12-01T18:38:37.309Z,49.25
2022-12-01T18:41:40.840Z,51.75
2022-12-01T18:44:43.593Z,55.50
2022-12-01T18:47:47.344Z,53.25
2022-12-01T18:50:53.760Z,55.25
2022-12-01T18:54:04.937Z,58.50
2022-12-01T18:57:07.859Z,55.50
2022-12-01T19:00:12.513Z,52.00
2022-12-01T19:03:16.555Z,44.75
2022-12-01T19:06:19.842Z,69.25
2022-12-01T19:09:22.523Z,52.75
2022-12-01T19:12:25.646Z,56.25
2022-12-01T19:15:28.950Z,53.25
2022-12-01T19:18:37.533Z,62.75
2022-12-01T19:21:40.422Z,47.75
2022-12-01T19:24:49.862Z,56.75
2022-12-01T19:27:53.963Z,44.75
2022-12-01T19:30:58.756Z,46.75
2022-12-01T19:34:02.122Z,55.00
2022-12-01T19:37:07.080Z,54.50
2022-12-01T19:40:10.817Z,66.00
2022-12-01T19:43:14.165Z,61.75
2022-12-01T19:46:25.593Z,59.00
2022-12-01T19:49:31.015Z,63.25
2022-12-01T19:52:36.262Z,44.00
2022-12-01T19:55:40.492Z,56.50
2022-12-01T19:58:43.882Z,61.00
2022-12-01T20:01:48.774Z,60.50
2022-12-01T20:04:52.006Z,51.50
2022-12-01T20:07:56.008Z,64.25
2022-12-01T20:11:04.450Z,63.75
2022-12-01T20:14:08.562Z,55.50
2022-12-01T20:17:16.137Z,61.25
2022-12-01T20:20:20.462Z,63.75
2022-12-01T20:23:23.879Z,63.75
2022-12-01T20:26:32.394Z,52.75
2022-12-01T20:29:35.711Z,64.75
2022-12-01T20:32:40.821Z,65.00
2022-12-01T20:35:47.820Z,53.75
2022-12-01T20:38:52.260Z,52.75
2022-12-01T20:41:55.708Z,56.25
2022-12-01T20:44:59.424Z,53.75
2022-12-01T20:48:03.400Z,69.50
2022-12-01T20:51:06.899Z,55.25
2022-12-01T20:54:27.822Z,69.50
2022-12-01T20:57:39.384Z,53.75
2022-12-01T21:00:45.976Z,63.00
2022-12-01T21:03:49.239Z,50.50
2022-12-01T21:06:52.220Z,55.00
2022-12-01T21:09:55.455Z,59.50
2022-12-01T21:13:42.465Z,52.50
2022-12-01T21:16:49.370Z,56.75
2022-12-01T21:20:01.788Z,59.50
2022-12-01T21:23:16.457Z,52.00
2022-12-01T21:26:19.626Z,54.00
2022-12-01T21:29:28.465Z,49.25
2022-12-01T21:32:32.616Z,58.25
2022-12-01T21:35:35.534Z,54.50
2022-12-01T21:38:38.140Z,51.25
2022-12-01T21:41:41.165Z,60.00
2022-12-01T21:44:43.723Z,56.25
2022-12-01T21:47:46.557Z,50.25
2022-12-01T21:50:54.153Z,55.75
2022-12-01T21:53:57.236Z,55.50
2022-12-01T21:56:59.739Z,44.00
2022-12-01T22:00:29.998Z,53.75
2022-12-01T22:03:42.468Z,62.00
2022-12-01T22:06:48.085Z,61.00
2022-12-01T22:09:51.223Z,62.00
2022-12-01T22:12:53.978Z,60.50
2022-12-01T22:15:57.210Z,56.75
2022-12-01T22:19:20.855Z,60.25
2022-12-01T22:22:26.475Z,56.25
2022-12-01T22:25:30.181Z,56.75
2022-12-01T22:28:32.630Z,53.75
2022-12-01T22:31:35.607Z,57.00
2022-12-01T22:34:58.723Z,54.50
2022-12-01T22:38:07.626Z,56.25
2022-12-01T22:41:12.443Z,53.25
2022-12-01T22:44:15.500Z,59.75
2022-12-01T22:47:18.141Z,51.25
2022-12-01T22:50:31.564Z,47.25
2022-12-01T22:53:34.028Z,62.50
2022-12-01T22:57:14.571Z,49.50
2022-12-01T23:00:21.258Z,49.50
2022-12-01T23:03:24.033Z,56.25
2022-12-01T23:06:52.657Z,47.50
2022-12-01T23:10:20.447Z,54.25
2022-12-01T23:13:24.773Z,46.75
2022-12-01T23:16:27.587Z,50.50
2022-12-01T23:19:30.140Z,48.75
2022-12-01T23:22:33.020Z,61.50
2022-12-01T23:25:35.984Z,56.25
2022-12-01T23:28:39.575Z,47.00
2022-12-01T23:31:42.372Z,42.25
2022-12-01T23:34:45.098Z,55.25
2022-12-01T23:37:48.654Z,50.25
2022-12-01T23:40:53.306Z,47.50
2022-12-01T23:43:56.370Z,48.50
2022-12-01T23:46:59.326Z,49.00
2022-12-01T23:50:06.105Z,50.00
2022-12-01T23:53:29.998Z,53.75
2022-12-01T23:56:32.598Z,55.75
2022-12-01T23:59:37.846Z,50.50
